Bingol, Turkey

10:19 AM +03 on March 26, 2017 (GMT +0300)
Bingol | | Change Station

Elev 0 ft 38.86 °N, 40.59 °E | Updated 29 minutes ago

Clear
Clear
45 °F
Feels Like 45 °F
N
2
Wind Variable Wind from SSW

Today
High -- | Low -- °F
--% Chance of Precip.
Yesterday
High -- | Low -- °F
Precip. -- in
Pressure 30.06 in
Visibility -9999.0 miles
Clouds
Dew Point 27 °F
Humidity 49%
Rainfall 0.00 in
Snow Depth Not available.
6:12 AM 6:35 PM
Waning Crescent, 4% visible
METAR LTCU 260650Z 20002KT CAVOK 07/M03 Q1018
Pressure 30.06 in
Visibility -9999.0 miles
Clouds
Dew Point 27 °F
Humidity 49%
Rainfall 0.00 in
Snow Depth Not available.
6:12 AM 6:35 PM
Waning Crescent, 4% visible
METAR LTCU 260650Z 20002KT CAVOK 07/M03 Q1018

Get Severe Weather Alerts

Thanks for signing up!

Be on the lookout for a verification email in your inbox.

You'll start receiving the daily forecast at 8 AM.

×

10-Day Weather Forecast

×

Almanac

Astronomy

Mar. 26, 2017 Rise Set
Actual Time
Civil Twilight
Nautical Twilight
Astronomical Twilight
Moon
Length of Visible Light
Length of Day
Tomorrow will be .
, % of the Moon is Illuminated

Today's Extremes

Country Highs Country Lows

Community

WunderPhotos

Upload Photos

1,962,540 photos uploaded!

WunderBlog® & News

Nearby

Air Quality

  Air Quality AQ Index Pollutant
Not available.

Snow Depth

Station Depth Elevation

Earthquake Activity

City Distance Mag. Time & Date
Minimum magnitude displayed is 2.5.

Earthquake Activity

City Distance Mag. Time & Date
Minimum magnitude displayed is 2.5.

Coastal Water Temperatures

Place Temperature

Stations

Nearby Weather Stations

Station Location Temp. Windchill Dew Point Humidity Wind Precip. Elev Updated Type